Time;durP1;ratioP1;P1;durP2;ratioP2;P2;SDS_P1;SDS_P2;PMS_P1;PMS_P2;Temp;Humidity;BMP_temperature;BMP_pressure;BME280_temperature;BME280_humidity;BME280_pressure;Samples;Min_cycle;Max_cycle;Signal;HPM_P1;HPM_P2
2023/10/09 00:01:51;;;;;;;0.20;0.20;;;;;;;19.15;80.48;100814.19;5038371;28;20076;-89
2023/10/09 00:04:17;;;;;;;0.20;0.20;;;;;;;19.15;80.67;100797.25;5052372;28;20025;-88
2023/10/09 00:06:43;;;;;;;0.20;0.20;;;;;;;19.53;79.90;100822.94;5037785;28;20071;-89
2023/10/09 00:09:30;;;;;;;0.20;0.20;;;;;;;19.32;78.63;100793.59;5032321;28;20032;-89
2023/10/09 00:11:57;;;;;;;0.20;0.20;;;;;;;19.34;77.24;100799.63;5031975;28;20033;-89
2023/10/09 00:14:30;;;;;;;0.20;0.20;;;;;;;19.49;77.03;100820.13;5040974;28;20111;-88
2023/10/09 00:19:37;;;;;;;0.20;0.20;;;;;;;19.36;75.97;100819.78;5041791;28;20102;-89
2023/10/09 00:22:10;;;;;;;0.20;0.20;;;;;;;19.36;75.63;100819.78;5031890;28;20112;-89
2023/10/09 00:24:41;;;;;;;0.20;0.20;;;;;;;19.35;75.20;100808.91;5031872;28;20056;-90
2023/10/09 00:27:12;;;;;;;0.20;0.20;;;;;;;19.40;75.18;100807.69;5031714;28;20056;-89
2023/10/09 00:29:44;;;;;;;0.20;0.20;;;;;;;19.25;76.09;100790.78;5033641;28;20033;-90
2023/10/09 00:32:22;;;;;;;0.10;0.10;;;;;;;19.29;76.80;100808.53;5040663;28;20063;-89
2023/10/09 00:34:50;;;;;;;0.20;0.20;;;;;;;19.29;77.07;100811.34;5039588;28;20052;-90
2023/10/09 00:37:17;;;;;;;0.20;0.20;;;;;;;19.35;77.66;100797.63;5040834;28;20485;-89
2023/10/09 00:39:43;;;;;;;0.20;0.20;;;;;;;19.29;77.12;100802.06;5041262;28;20466;-89
2023/10/09 00:42:14;;;;;;;0.20;0.20;;;;;;;19.26;77.27;100809.31;5044894;28;20037;-89
2023/10/09 00:44:41;;;;;;;0.20;0.20;;;;;;;19.15;78.51;100802.91;5039352;28;20072;-89
2023/10/09 00:47:21;;;;;;;0.20;0.20;;;;;;;18.84;77.54;100771.53;5045586;28;20116;-88
2023/10/09 00:50:01;;;;;;;0.20;0.20;;;;;;;19.22;78.17;100796.44;5036343;28;20033;-89
2023/10/09 00:52:33;;;;;;;0.20;0.20;;;;;;;18.96;76.66;100775.97;5046389;28;20021;-89
2023/10/09 00:55:08;;;;;;;0.20;0.20;;;;;;;19.13;76.33;100794.06;5038669;28;20045;-89
2023/10/09 00:57:37;;;;;;;0.20;0.20;;;;;;;19.20;76.26;100779.94;5031671;28;20623;-89
2023/10/09 01:00:10;;;;;;;0.20;0.20;;;;;;;19.29;76.25;100774.66;5033476;28;20057;-89
2023/10/09 01:02:36;;;;;;;0.10;0.10;;;;;;;19.44;75.51;100791.53;5051440;28;20037;-90
2023/10/09 01:05:18;;;;;;;0.20;0.20;;;;;;;19.45;75.85;100782.66;5047606;28;20488;-89
2023/10/09 01:07:46;;;;;;;0.20;0.20;;;;;;;19.42;75.42;100786.31;5031269;28;20416;-90
2023/10/09 01:10:11;;;;;;;0.20;0.20;;;;;;;19.34;75.06;100782.72;5031475;28;20029;-89
2023/10/09 01:12:43;;;;;;;0.20;0.20;;;;;;;19.31;76.00;100783.50;5031843;28;20033;-89
2023/10/09 01:15:17;;;;;;;0.20;0.20;;;;;;;19.29;76.42;100774.66;5032050;28;20090;-90
2023/10/09 01:17:45;;;;;;;0.20;0.20;;;;;;;19.30;76.16;100792.41;5041051;28;20021;-89
2023/10/09 01:20:17;;;;;;;0.20;0.20;;;;;;;19.36;75.61;100788.75;5052549;28;20104;-88
2023/10/09 01:22:43;;;;;;;0.20;0.20;;;;;;;19.27;76.19;100765.00;5051167;28;20029;-89
2023/10/09 01:25:10;;;;;;;0.20;0.20;;;;;;;19.30;76.15;100753.69;5051254;28;20025;-89
2023/10/09 01:27:40;;;;;;;0.20;0.20;;;;;;;19.40;75.92;100771.00;5051025;28;20025;-90
2023/10/09 01:30:06;;;;;;;0.20;0.20;;;;;;;19.25;76.47;100744.84;5051337;28;20109;-88
2023/10/09 01:32:32;;;;;;;0.20;0.20;;;;;;;19.44;76.98;100778.25;5051398;28;20025;-89
2023/10/09 01:34:58;;;;;;;0.20;0.20;;;;;;;19.30;76.60;100764.19;5051155;28;20435;-89
2023/10/09 01:37:26;;;;;;;0.20;0.20;;;;;;;19.49;76.43;100772.16;5050969;28;20021;-89
2023/10/09 01:39:53;;;;;;;0.20;0.20;;;;;;;19.44;75.75;100785.88;5051231;28;20036;-89
2023/10/09 01:42:44;;;;;;;0.20;0.20;;;;;;;19.28;75.80;100756.13;5051074;28;20036;-89
2023/10/09 01:45:11;;;;;;;0.20;0.20;;;;;;;19.35;75.54;100773.03;5051190;28;20403;-89
2023/10/09 01:47:39;;;;;;;0.20;0.20;;;;;;;19.24;75.46;100763.81;5032560;28;20033;-89
2023/10/09 01:50:11;;;;;;;0.20;0.20;;;;;;;19.28;75.57;100770.25;5031295;28;20135;-88
2023/10/09 01:52:37;;;;;;;0.20;0.20;;;;;;;19.07;75.64;100744.91;5033609;28;20112;-87
2023/10/09 01:55:27;;;;;;;0.20;0.20;;;;;;;19.26;75.85;100763.38;5054175;28;20045;-87
2023/10/09 01:57:48;;;;;;;0.20;0.20;;;;;;;19.26;75.75;100747.25;5051853;28;20060;-89
2023/10/09 02:00:22;;;;;;;0.20;0.20;;;;;;;19.26;75.30;100758.53;5052264;28;20090;-89
2023/10/09 02:02:48;;;;;;;0.20;0.20;;;;;;;19.37;75.79;100766.97;5050367;28;20029;-89
2023/10/09 02:07:51;;;;;;;0.20;0.20;;;;;;;19.24;76.06;100748.91;5032325;28;20115;-88
2023/10/09 02:13:10;;;;;;;0.20;0.20;;;;;;;19.33;75.19;100769.81;5031289;28;20044;-89
2023/10/09 02:21:00;;;;;;;0.20;0.20;;;;;;;19.35;76.87;100775.03;5055675;28;19961;-88
2023/10/09 02:26:25;;;;;;;0.20;0.20;;;;;;;19.35;74.82;100781.50;5035805;28;20029;-89
2023/10/09 02:29:15;;;;;;;0.20;0.20;;;;;;;19.35;75.32;100778.66;5034252;28;20181;-88
2023/10/09 02:31:46;;;;;;;0.20;0.20;;;;;;;19.18;74.75;100771.06;5034193;28;20025;-88
2023/10/09 02:34:12;;;;;;;0.20;0.20;;;;;;;19.19;74.40;100781.16;5034207;28;20044;-89
2023/10/09 02:36:42;;;;;;;0.10;0.10;;;;;;;19.13;74.74;100771.50;5034037;28;20493;-89
2023/10/09 02:39:21;;;;;;;0.20;0.20;;;;;;;19.08;75.85;100783.19;5034251;28;20029;-89
2023/10/09 02:41:49;;;;;;;0.20;0.20;;;;;;;19.05;75.81;100752.97;5034854;28;20033;-90
2023/10/09 02:44:15;;;;;;;0.20;0.20;;;;;;;19.00;74.77;100770.31;5037249;28;20460;-88
2023/10/09 02:46:41;;;;;;;0.20;0.20;;;;;;;18.94;75.21;100755.00;5053962;28;20025;-88
2023/10/09 02:49:09;;;;;;;0.20;0.20;;;;;;;18.89;75.90;100753.41;5054083;28;20523;-89
2023/10/09 02:51:41;;;;;;;0.20;0.20;;;;;;;19.00;75.84;100773.13;5053890;28;20116;-87
2023/10/09 02:54:17;;;;;;;0.20;0.20;;;;;;;18.91;75.18;100767.09;5035013;28;20106;-88
2023/10/09 02:56:43;;;;;;;0.20;0.20;;;;;;;18.77;75.94;100754.66;5034056;28;20112;-90
2023/10/09 02:59:09;;;;;;;0.20;0.20;;;;;;;18.93;76.57;100770.34;5033667;28;20164;-89
2023/10/09 03:01:39;;;;;;;0.20;0.20;;;;;;;18.96;76.61;100777.97;5033402;28;20405;-89
2023/10/09 03:04:05;;;;;;;0.20;0.20;;;;;;;18.95;75.32;100767.91;5033646;28;20029;-89
2023/10/09 03:06:38;;;;;;;0.20;0.20;;;;;;;18.74;74.41;100758.25;5033597;28;20060;-89
2023/10/09 03:09:16;;;;;;;0.20;0.20;;;;;;;18.89;75.03;100769.53;5033593;28;20025;-88
2023/10/09 03:11:48;;;;;;;0.20;0.20;;;;;;;18.93;75.75;100782.41;5040259;28;20025;-89
2023/10/09 03:14:14;;;;;;;0.20;0.20;;;;;;;18.88;74.71;100770.75;5053274;28;20025;-89
2023/10/09 03:16:39;;;;;;;0.20;0.20;;;;;;;18.82;73.94;100761.88;5053610;28;20037;-88
2023/10/09 03:19:04;;;;;;;0.20;0.20;;;;;;;18.90;74.27;100782.41;5053678;28;20025;-89
2023/10/09 03:21:30;;;;;;;0.20;0.20;;;;;;;18.89;73.67;100769.53;5053108;28;20032;-89
2023/10/09 03:23:56;;;;;;;0.20;0.20;;;;;;;18.70;74.11;100754.66;5049294;28;20029;-89
2023/10/09 03:26:25;;;;;;;0.20;0.20;;;;;;;18.64;73.01;100750.59;5033291;28;20072;-90
2023/10/09 03:28:52;;;;;;;0.20;0.20;;;;;;;18.59;73.70;100736.94;5032980;28;20117;-89
2023/10/09 03:31:18;;;;;;;0.20;0.20;;;;;;;18.82;72.75;100773.97;5033150;28;20040;-88
2023/10/09 03:33:43;;;;;;;0.20;0.20;;;;;;;18.89;72.79;100766.72;5033166;28;20034;-88
2023/10/09 03:36:09;;;;;;;0.20;0.20;;;;;;;18.84;71.52;100765.91;5032803;28;20040;-89
2023/10/09 03:38:40;;;;;;;0.17;0.17;;;;;;;18.88;70.72;100773.56;5032968;28;20057;-88
2023/10/09 03:41:06;;;;;;;0.20;0.20;;;;;;;18.89;70.68;100772.34;5033284;28;20025;-89
2023/10/09 03:43:40;;;;;;;0.20;0.20;;;;;;;18.89;70.42;100766.72;5033055;28;20017;-90
2023/10/09 03:46:20;;;;;;;0.20;0.20;;;;;;;18.86;70.10;100773.16;5033017;28;20623;-89
2023/10/09 03:48:47;;;;;;;0.20;0.20;;;;;;;18.72;69.66;100746.59;5032759;28;20052;-89
2023/10/09 03:51:15;;;;;;;0.20;0.20;;;;;;;18.73;70.11;100756.66;5041198;28;20045;-88
2023/10/09 03:53:41;;;;;;;0.20;0.20;;;;;;;18.82;69.84;100767.53;5050617;28;20059;-89
2023/10/09 03:56:15;;;;;;;0.20;0.20;;;;;;;18.62;69.76;100741.75;5032901;28;20021;-90
2023/10/09 03:58:45;;;;;;;0.20;0.20;;;;;;;18.88;70.41;100754.63;5032527;28;20028;-89
2023/10/09 04:04:03;;;;;;;0.20;0.20;;;;;;;18.83;69.01;100741.75;5034061;28;20044;-89
2023/10/09 04:06:32;;;;;;;0.20;0.20;;;;;;;18.79;69.36;100745.78;5032774;28;20029;-89
2023/10/09 04:11:46;;;;;;;0.20;0.20;;;;;;;18.87;69.36;100767.13;5033744;28;20069;-89
2023/10/09 04:14:36;;;;;;;0.20;0.20;;;;;;;18.91;68.92;100772.72;5033252;28;20040;-89
2023/10/09 04:19:47;;;;;;;0.20;0.20;;;;;;;18.86;69.90;100776.78;5033407;28;20563;-89
2023/10/09 04:22:25;;;;;;;0.20;0.20;;;;;;;18.95;69.64;100770.72;5032263;28;20030;-89
2023/10/09 04:24:51;;;;;;;0.20;0.20;;;;;;;18.87;69.50;100772.75;5055110;28;20051;-89
2023/10/09 04:27:17;;;;;;;0.20;0.20;;;;;;;18.63;69.00;100742.56;5071650;28;20492;-89
2023/10/09 04:29:47;;;;;;;0.20;0.20;;;;;;;18.80;69.15;100776.41;5071460;28;20025;-88
2023/10/09 04:32:15;;;;;;;0.20;0.20;;;;;;;18.91;70.60;100782.03;5071743;28;20112;-89
2023/10/09 04:34:48;;;;;;;0.20;0.20;;;;;;;18.89;70.43;100775.16;5071621;28;20021;-89
2023/10/09 04:39:47;;;;;;;0.20;0.20;;;;;;;18.59;69.77;100737.75;5073002;28;20035;-89
2023/10/09 04:47:35;;;;;;;0.20;0.20;;;;;;;18.84;70.51;100782.81;5034986;28;20120;-89
2023/10/09 04:50:11;;;;;;;0.20;0.20;;;;;;;18.73;71.34;100753.03;5031710;28;20444;-89
2023/10/09 04:57:37;;;;;;;0.20;0.20;;;;;;;19.09;70.36;100793.25;5032829;28;20029;-89
2023/10/09 05:00:06;;;;;;;0.20;0.20;;;;;;;19.10;70.74;100786.41;5031409;28;20374;-90
2023/10/09 05:02:36;;;;;;;0.20;0.20;;;;;;;19.06;70.83;100779.94;5031965;28;20037;-89
2023/10/09 05:05:58;;;;;;;0.20;0.20;;;;;;;18.98;70.67;100769.91;5031502;28;20111;-89
2023/10/09 05:08:48;;;;;;;0.20;0.20;;;;;;;19.04;71.51;100790.84;5042039;28;20040;-89
2023/10/09 05:16:26;;;;;;;0.20;0.20;;;;;;;18.89;72.00;100798.53;5034922;28;20124;-90
2023/10/09 05:18:56;;;;;;;0.20;0.20;;;;;;;19.02;71.57;100804.56;5031378;28;20057;-90
2023/10/09 05:29:19;;;;;;;0.20;0.20;;;;;;;19.90;67.81;100813.94;5049591;28;20033;-89
2023/10/09 05:34:33;;;;;;;0.20;0.20;;;;;;;20.40;64.57;100820.09;5049635;28;20195;-90
2023/10/09 05:37:24;;;;;;;0.20;0.20;;;;;;;20.69;63.43;100802.94;5048733;28;20198;-89
2023/10/09 05:42:42;;;;;;;0.20;0.20;;;;;;;21.53;59.69;100821.50;5050878;28;20412;-89
2023/10/09 06:03:16;;;;;;;0.20;0.20;;;;;;;24.73;48.54;100860.38;5055863;28;20044;-89
2023/10/09 06:04:54;;;;;;;0.20;0.20;;;;;;;24.85;47.77;100850.31;5055447;28;20082;-87
2023/10/09 06:07:40;;;;;;;0.20;0.20;;;;;;;24.75;47.33;100862.75;5055348;28;20484;-86
2023/10/09 06:10:32;;;;;;;0.20;0.20;;;;;;;25.31;45.96;100842.63;5054154;28;20029;-88
2023/10/09 06:13:03;;;;;;;0.20;0.20;;;;;;;25.67;45.49;100853.00;5055187;28;20128;-88
2023/10/09 06:15:51;;;;;;;0.20;0.20;;;;;;;26.32;44.47;100864.13;5053875;28;20025;-88
2023/10/09 06:18:34;;;;;;;0.20;0.20;;;;;;;26.62;43.77;100872.13;5051570;28;20899;-89
2023/10/09 06:26:24;;;;;;;0.20;0.20;;;;;;;26.68;42.18;100872.34;5075917;28;20051;-88
2023/10/09 06:29:13;;;;;;;0.20;0.20;;;;;;;26.51;42.90;100868.03;5075035;28;20032;-89
2023/10/09 06:34:24;;;;;;;0.10;0.10;;;;;;;26.74;42.48;100875.44;5077342;28;20035;-91
2023/10/09 06:36:53;;;;;;;0.20;0.20;;;;;;;26.88;41.90;100897.81;5076997;28;20063;-91
2023/10/09 06:42:09;;;;;;;0.20;0.20;;;;;;;27.56;39.56;100904.06;5056587;28;20044;-91
2023/10/09 06:44:53;;;;;;;0.10;0.10;;;;;;;28.14;38.38;100901.50;5054812;28;20028;-92
2023/10/09 06:47:18;;;;;;;0.20;0.20;;;;;;;27.35;39.49;100889.28;5054706;28;20120;-91
2023/10/09 06:50:12;;;;;;;0.20;0.20;;;;;;;27.37;39.69;100914.53;5048222;28;20117;-92
2023/10/09 06:52:57;;;;;;;0.20;0.20;;;;;;;27.00;39.31;100911.25;5035814;28;20473;-91
2023/10/09 06:55:32;;;;;;;0.20;0.20;;;;;;;26.45;40.62;100916.31;5035463;28;20037;-91
2023/10/09 06:58:01;;;;;;;0.10;0.10;;;;;;;27.11;39.40;100913.78;5035368;28;20037;-90
2023/10/09 07:03:14;;;;;;;0.20;0.20;;;;;;;27.86;38.56;100911.97;5055474;28;20048;-90
2023/10/09 07:06:04;;;;;;;0.20;0.20;;;;;;;27.59;38.36;100932.53;5045208;28;20089;-91
2023/10/09 07:08:36;;;;;;;0.20;0.20;;;;;;;27.26;37.62;100925.53;5027105;28;20123;-91
2023/10/09 07:14:02;;;;;;;0.10;0.10;;;;;;;27.82;38.22;100908.44;5055956;28;20840;-90
2023/10/09 07:16:38;;;;;;;0.10;0.10;;;;;;;27.78;38.18;100927.78;5054603;28;20074;-91
2023/10/09 07:19:25;;;;;;;0.10;0.10;;;;;;;28.54;36.54;100938.00;5054581;28;20021;-91
2023/10/09 07:21:54;;;;;;;0.20;0.20;;;;;;;28.39;37.23;100926.34;5054611;28;20032;-91
2023/10/09 07:24:24;;;;;;;0.10;0.10;;;;;;;29.10;36.91;100936.97;5055343;28;20120;-90
2023/10/09 07:26:53;;;;;;;0.20;0.20;;;;;;;29.13;36.48;100927.44;5055114;28;20148;-90
2023/10/09 07:29:22;;;;;;;0.10;0.10;;;;;;;29.59;35.12;100941.88;5054171;28;20013;-92
2023/10/09 07:31:58;;;;;;;0.10;0.10;;;;;;;30.31;34.20;100953.00;5054302;28;20033;-91
2023/10/09 07:37:09;;;;;;;0.10;0.10;;;;;;;29.50;36.00;100936.88;5057065;28;20047;-90
2023/10/09 07:39:34;;;;;;;0.10;0.10;;;;;;;29.12;35.66;100925.03;5038240;28;20696;-92
2023/10/09 07:42:15;;;;;;;0.10;0.10;;;;;;;28.65;36.32;100935.50;5055242;28;20033;-90
2023/10/09 07:44:52;;;;;;;0.20;0.20;;;;;;;29.09;36.82;100949.72;5043337;28;20036;-91
2023/10/09 07:47:45;;;;;;;0.10;0.10;;;;;;;29.78;35.80;100947.63;5034319;28;20397;-91
2023/10/09 07:50:11;;;;;;;0.10;0.10;;;;;;;30.16;35.49;100956.53;5039903;28;20516;-91
2023/10/09 07:52:43;;;;;;;0.10;0.10;;;;;;;30.51;34.72;100948.31;5053368;28;20556;-90
2023/10/09 07:55:25;;;;;;;0.10;0.10;;;;;;;30.60;33.54;100969.69;5048365;28;20124;-89
2023/10/09 07:57:52;;;;;;;0.10;0.10;;;;;;;30.66;32.95;100968.53;5033652;28;20033;-90
2023/10/09 08:00:36;;;;;;;0.10;0.10;;;;;;;30.77;31.89;100965.97;5035122;28;20112;-89
2023/10/09 08:03:02;;;;;;;0.13;0.13;;;;;;;31.09;31.21;100966.47;5034119;28;20036;-90
2023/10/09 08:05:33;;;;;;;0.10;0.10;;;;;;;31.03;30.41;100977.81;5041738;28;20029;-88
2023/10/09 08:16:20;;;;;;;0.20;0.20;;;;;;;31.27;30.30;100942.63;5038749;28;20124;-90
2023/10/09 08:18:45;;;;;;;0.10;0.10;;;;;;;30.82;30.84;100967.38;5039168;28;20040;-92
2023/10/09 08:23:48;;;;;;;0.10;0.10;;;;;;;30.40;31.09;100958.72;5038974;28;20045;-90
2023/10/09 08:26:47;;;;;;;0.10;0.10;;;;;;;31.50;29.33;100935.25;5038799;28;20075;-90
2023/10/09 08:29:19;;;;;;;0.10;0.10;;;;;;;30.60;30.13;100956.09;5032631;28;20035;-90
2023/10/09 08:31:45;;;;;;;;;;;;;;;30.98;30.13;100963.31;5033607;28;20033;-91
2023/10/09 08:34:24;;;;;;;0.10;0.10;;;;;;;31.20;29.55;100958.09;5034920;28;19935;-90
2023/10/09 08:36:53;;;;;;;0.10;0.10;;;;;;;31.80;29.44;100968.63;5037526;28;20037;-91
2023/10/09 08:39:33;;;;;;;0.10;0.10;;;;;;;31.73;29.33;100963.19;5039651;28;20061;-90
2023/10/09 08:41:58;;;;;;;0.10;0.10;;;;;;;31.75;29.51;100957.75;5052385;28;20052;-90
2023/10/09 08:44:31;;;;;;;0.10;0.10;;;;;;;31.91;29.44;100964.38;5052355;28;20068;-91
2023/10/09 08:46:57;;;;;;;0.10;0.10;;;;;;;31.92;29.88;100965.97;5044879;28;20492;-90
2023/10/09 08:49:23;;;;;;;0.10;0.10;;;;;;;31.33;30.77;100965.72;5033806;28;20022;-90
2023/10/09 08:51:52;;;;;;;0.10;0.10;;;;;;;30.33;32.78;100948.38;5031301;28;20029;-90
2023/10/09 08:54:18;;;;;;;0.10;0.10;;;;;;;30.70;32.51;100965.53;5030335;28;20037;-92
2023/10/09 08:56:52;;;;;;;0.10;0.10;;;;;;;29.97;33.71;100944.25;5032327;28;20088;-90
2023/10/09 08:59:19;;;;;;;0.10;0.10;;;;;;;30.27;34.61;100961.78;5051157;28;20035;-93
2023/10/09 09:01:49;;;;;;;0.10;0.10;;;;;;;30.63;34.47;100960.91;5051426;28;20021;-91
2023/10/09 09:04:38;;;;;;;0.10;0.10;;;;;;;30.62;34.86;100962.16;5050708;28;20024;-90
2023/10/09 09:07:04;;;;;;;0.10;0.10;;;;;;;30.72;34.73;100958.00;5051114;28;20025;-90
2023/10/09 09:09:32;;;;;;;0.10;0.10;;;;;;;30.96;34.85;100954.41;5052641;28;20096;-90
2023/10/09 09:11:59;;;;;;;0.10;0.10;;;;;;;30.70;36.01;100951.97;5050234;28;20358;-89
2023/10/09 09:14:36;;;;;;;0.10;0.10;;;;;;;30.81;35.31;100973.63;5051533;28;20103;-88
2023/10/09 09:17:04;;;;;;;0.10;0.10;;;;;;;31.36;35.50;100961.88;5050105;28;20443;-89
2023/10/09 09:19:37;;;;;;;0.10;0.10;;;;;;;30.91;36.33;100947.25;5051003;28;20627;-89
2023/10/09 09:22:12;;;;;;;0.10;0.10;;;;;;;30.97;35.88;100950.25;5049688;28;20032;-89
2023/10/09 09:24:39;;;;;;;0.10;0.10;;;;;;;30.61;36.25;100945.41;5049723;28;20125;-89
2023/10/09 09:27:20;;;;;;;0.10;0.10;;;;;;;30.88;35.46;100953.16;5050361;28;20554;-88
2023/10/09 09:29:53;;;;;;;0.10;0.10;;;;;;;30.63;36.30;100957.19;5053515;28;20037;-89
2023/10/09 09:32:29;;;;;;;0.10;0.10;;;;;;;30.68;35.82;100957.38;5053413;28;20357;-88
2023/10/09 09:35:01;;;;;;;0.13;0.13;;;;;;;30.99;35.12;100950.53;5052940;28;20025;-90
2023/10/09 09:37:28;;;;;;;0.10;0.10;;;;;;;32.15;33.61;100942.06;5053890;28;20491;-90
2023/10/09 09:40:10;;;;;;;0.10;0.10;;;;;;;31.57;34.25;100934.88;5053484;28;20117;-90
2023/10/09 09:42:37;;;;;;;0.10;0.10;;;;;;;31.82;33.93;100956.59;5055250;28;20475;-89
2023/10/09 09:45:05;;;;;;;0.10;0.10;;;;;;;31.43;34.92;100947.13;5053703;28;20092;-89
2023/10/09 09:47:35;;;;;;;0.20;0.20;;;;;;;31.36;34.57;100956.13;5053392;28;20036;-89
2023/10/09 09:50:11;;;;;;;0.20;0.20;;;;;;;31.07;35.27;100959.63;5053749;28;20079;-90
2023/10/09 09:52:39;;;;;;;0.10;0.10;;;;;;;31.40;34.83;100956.72;5053818;28;20507;-90
2023/10/09 09:55:22;;;;;;;0.10;0.10;;;;;;;31.72;34.95;100952.19;5053901;28;20496;-91
2023/10/09 09:57:52;;;;;;;0.10;0.10;;;;;;;31.46;35.01;100952.69;5054317;28;20480;-90
2023/10/09 10:00:42;;;;;;;0.10;0.10;;;;;;;31.15;37.44;100950.13;5053847;28;20033;-91
2023/10/09 10:03:32;;;;;;;0.10;0.10;;;;;;;32.11;35.76;100947.22;5054125;28;20090;-92
2023/10/09 10:06:05;;;;;;;0.10;0.10;;;;;;;32.61;35.56;100956.00;5069840;28;20032;-90
2023/10/09 10:08:34;;;;;;;0.10;0.10;;;;;;;32.29;36.17;100947.03;5074513;28;20056;-90
2023/10/09 10:11:05;;;;;;;0.17;0.17;;;;;;;31.60;37.33;100918.72;5074662;28;20078;-90
2023/10/09 10:13:40;;;;;;;0.10;0.10;;;;;;;32.18;36.45;100949.72;5074364;28;20033;-90
2023/10/09 10:16:13;;;;;;;0.20;0.20;;;;;;;32.46;36.09;100947.34;5073995;28;20098;-91
2023/10/09 10:21:41;;;;;;;0.10;0.10;;;;;;;32.66;35.63;100920.72;5075409;28;20033;-90
2023/10/09 10:24:28;;;;;;;0.10;0.10;;;;;;;32.53;36.21;100935.44;5074697;28;20047;-91
2023/10/09 10:27:27;;;;;;;0.10;0.10;;;;;;;32.18;36.76;100938.19;5074695;28;20031;-90
2023/10/09 10:30:31;;;;;;;0.10;0.10;;;;;;;32.49;36.21;100928.28;5073139;28;20443;-89
2023/10/09 10:32:58;;;;;;;0.10;0.10;;;;;;;32.55;36.35;100926.31;5073134;28;20120;-89
2023/10/09 10:35:39;;;;;;;0.10;0.10;;;;;;;32.12;36.42;100927.84;5060473;28;20035;-90
2023/10/09 10:38:39;;;;;;;0.10;0.10;;;;;;;31.02;39.30;100915.09;5045820;28;20029;-90
2023/10/09 10:41:12;;;;;;;0.10;0.10;;;;;;;31.81;37.52;100909.78;5038777;28;20450;-89
2023/10/09 10:46:24;;;;;;;0.10;0.10;;;;;;;30.45;40.73;100903.53;5037731;28;20087;-91
2023/10/09 10:48:58;;;;;;;0.10;0.10;;;;;;;30.76;39.49;100883.94;5041812;28;20114;-91
2023/10/09 10:51:39;;;;;;;0.10;0.10;;;;;;;30.06;40.92;100865.97;5045927;28;20124;-91
2023/10/09 10:56:51;;;;;;;0.10;0.10;;;;;;;30.93;39.82;100892.16;5040071;28;20413;-92
2023/10/09 10:59:26;;;;;;;0.10;0.10;;;;;;;30.65;40.02;100869.31;5044840;28;20039;-90
2023/10/09 11:01:53;;;;;;;0.10;0.10;;;;;;;30.96;39.58;100873.97;5035723;28;20040;-92
2023/10/09 11:12:44;;;;;;;0.10;0.10;;;;;;;30.58;42.27;100855.31;5042128;28;20440;-91
2023/10/09 11:18:16;;;;;;;0.10;0.10;;;;;;;30.48;42.82;100848.00;5043203;28;20083;-91
2023/10/09 11:20:56;;;;;;;0.10;0.10;;;;;;;30.36;43.01;100831.78;5036351;28;20099;-91
2023/10/09 11:28:56;;;;;;;0.10;0.10;;;;;;;30.32;43.19;100802.47;5042029;28;20068;-90
2023/10/09 11:31:22;;;;;;;0.10;0.10;;;;;;;30.09;43.99;100804.75;5042185;28;20033;-90
2023/10/09 11:33:51;;;;;;;0.10;0.10;;;;;;;30.38;43.74;100812.00;5041438;28;20017;-90
2023/10/09 11:36:21;;;;;;;0.10;0.10;;;;;;;30.29;43.23;100814.91;5039051;28;20025;-90
2023/10/09 11:38:49;;;;;;;0.10;0.10;;;;;;;29.82;44.57;100810.56;5033494;28;20027;-89
2023/10/09 11:41:19;;;;;;;0.10;0.10;;;;;;;29.65;45.58;100808.06;5035346;28;20056;-90
2023/10/09 11:43:52;;;;;;;0.20;0.20;;;;;;;30.10;44.78;100809.22;5041481;28;20044;-90
2023/10/09 11:46:37;;;;;;;0.10;0.10;;;;;;;29.94;44.92;100790.31;5042565;28;20095;-90
2023/10/09 11:54:33;;;;;;;0.10;0.10;;;;;;;30.34;44.24;100776.94;5037201;28;20194;-90
2023/10/09 11:57:00;;;;;;;0.20;0.20;;;;;;;30.73;42.72;100787.25;5053899;28;20029;-91
2023/10/09 11:59:38;;;;;;;0.10;0.10;;;;;;;30.73;42.65;100769.22;5053334;28;20032;-90
2023/10/09 12:02:05;;;;;;;0.10;0.10;;;;;;;29.95;43.96;100768.16;5053626;28;20064;-90
2023/10/09 12:04:30;;;;;;;0.10;0.10;;;;;;;30.17;44.36;100777.34;5050574;28;20022;-91
2023/10/09 12:07:20;;;;;;;0.10;0.10;;;;;;;29.62;44.69;100779.56;5033405;28;20091;-91
2023/10/09 12:09:42;;;;;;;0.10;0.10;;;;;;;29.77;44.68;100780.47;5035781;28;20408;-90
2023/10/09 12:12:11;;;;;;;0.15;0.15;;;;;;;29.90;44.32;100780.28;5034764;28;20030;-90
2023/10/09 12:14:39;;;;;;;0.10;0.10;;;;;;;29.81;43.64;100774.56;5034812;28;20025;-91
2023/10/09 12:17:06;;;;;;;0.10;0.10;;;;;;;30.04;42.26;100756.63;5048374;28;20063;-90
2023/10/09 12:19:36;;;;;;;0.10;0.10;;;;;;;29.48;41.38;100735.13;5052932;28;20032;-90
2023/10/09 12:22:04;;;;;;;0.10;0.10;;;;;;;29.91;41.81;100756.84;5052918;28;20113;-90
2023/10/09 12:24:31;;;;;;;0.10;0.10;;;;;;;29.96;41.44;100761.13;5051679;28;20036;-92
2023/10/09 12:26:57;;;;;;;0.20;0.20;;;;;;;29.97;42.03;100748.38;5052597;28;20130;-91
2023/10/09 12:29:23;;;;;;;0.10;0.10;;;;;;;30.03;41.21;100746.44;5052571;28;20013;-90
2023/10/09 12:31:57;;;;;;;0.10;0.10;;;;;;;29.81;41.09;100748.75;5053137;28;20064;-90
2023/10/09 12:34:26;;;;;;;0.20;0.20;;;;;;;29.97;43.18;100725.44;5050972;28;20029;-89
2023/10/09 12:36:55;;;;;;;0.10;0.10;;;;;;;30.18;42.86;100741.63;5034259;28;20038;-89
2023/10/09 12:39:24;;;;;;;0.10;0.10;;;;;;;29.60;42.13;100737.03;5016439;28;20049;-90
2023/10/09 12:41:53;;;;;;;0.10;0.10;;;;;;;29.46;42.27;100723.34;5032408;28;20091;-91
2023/10/09 12:44:19;;;;;;;0.10;0.10;;;;;;;29.65;43.18;100739.25;5037220;28;20369;-90
2023/10/09 12:46:51;;;;;;;0.13;0.13;;;;;;;29.68;45.75;100744.03;5032641;28;20048;-91
2023/10/09 12:49:30;;;;;;;0.10;0.10;;;;;;;29.48;46.19;100726.53;5035292;28;20040;-90
2023/10/09 12:51:58;;;;;;;0.10;0.10;;;;;;;29.07;48.47;100723.06;5035737;28;20104;-91
2023/10/09 12:54:27;;;;;;;0.20;0.20;;;;;;;28.85;49.85;100726.06;5032058;28;20183;-89
2023/10/09 12:56:54;;;;;;;0.10;0.10;;;;;;;29.19;50.09;100719.25;5048566;28;20393;-91
2023/10/09 12:59:20;;;;;;;0.10;0.10;;;;;;;29.13;53.80;100711.75;5047172;28;20148;-91
2023/10/09 13:01:51;;;;;;;0.10;0.10;;;;;;;29.61;53.35;100714.88;5030744;28;20159;-90
2023/10/09 13:04:17;;;;;;;0.10;0.10;;;;;;;29.54;54.09;100727.50;5049859;28;20022;-91
2023/10/09 13:06:44;;;;;;;0.10;0.10;;;;;;;29.86;54.57;100725.94;5070597;28;20447;-90
2023/10/09 13:09:10;;;;;;;0.10;0.10;;;;;;;29.28;56.36;100717.63;5070308;28;20033;-89
2023/10/09 13:11:37;;;;;;;0.15;0.15;;;;;;;29.81;55.20;100717.22;5070381;28;20028;-90
2023/10/09 13:14:11;;;;;;;0.10;0.10;;;;;;;29.42;56.93;100712.03;5072033;28;20067;-90
2023/10/09 13:16:37;;;;;;;0.10;0.10;;;;;;;28.99;58.87;100721.81;5062461;28;20061;-91
2023/10/09 13:19:09;;;;;;;0.10;0.10;;;;;;;29.30;59.28;100723.69;5050624;28;20025;-90
2023/10/09 13:21:37;;;;;;;0.10;0.10;;;;;;;29.19;59.14;100713.53;5050475;28;20025;-90
2023/10/09 13:24:03;;;;;;;0.10;0.10;;;;;;;28.94;61.74;100716.72;5050552;28;20037;-89
2023/10/09 13:26:34;;;;;;;0.10;0.10;;;;;;;28.88;61.46;100704.28;5050386;28;20515;-91
2023/10/09 13:29:01;;;;;;;0.10;0.10;;;;;;;29.09;61.49;100709.06;5050529;28;20025;-91
2023/10/09 13:31:27;;;;;;;0.10;0.10;;;;;;;28.92;62.73;100707.75;5050401;28;20100;-90
2023/10/09 13:33:54;;;;;;;0.10;0.10;;;;;;;29.08;62.27;100707.47;5050256;28;20025;-90
2023/10/09 13:36:27;;;;;;;0.10;0.10;;;;;;;29.10;62.08;100704.13;5050696;28;20484;-91
2023/10/09 13:38:57;;;;;;;0.10;0.10;;;;;;;28.97;62.75;100702.22;5053856;28;20110;-91
2023/10/09 13:41:29;;;;;;;0.10;0.10;;;;;;;28.66;63.70;100702.38;5054581;28;20120;-90
2023/10/09 13:43:56;;;;;;;0.10;0.10;;;;;;;28.14;66.16;100700.47;5054872;28;20032;-90
2023/10/09 13:46:22;;;;;;;0.10;0.10;;;;;;;27.55;68.75;100688.13;5051850;28;20504;-90
2023/10/09 13:48:49;;;;;;;0.10;0.10;;;;;;;27.72;68.15;100694.44;5053606;28;20017;-91
2023/10/09 13:51:18;;;;;;;0.10;0.10;;;;;;;28.33;65.96;100698.47;5054118;28;20441;-90
2023/10/09 13:53:47;;;;;;;0.10;0.10;;;;;;;28.30;65.66;100694.47;5054317;28;20029;-91
2023/10/09 13:56:20;;;;;;;0.10;0.10;;;;;;;27.69;67.54;100691.22;5054707;28;20025;-91
2023/10/09 13:58:51;;;;;;;0.10;0.10;;;;;;;28.05;66.38;100677.56;5053685;28;20029;-91
2023/10/09 14:01:26;;;;;;;0.10;0.10;;;;;;;27.88;66.71;100674.97;5052677;28;20437;-91